Time;durP1;ratioP1;P1;durP2;ratioP2;P2;SDS_P1;SDS_P2;PMS_P1;PMS_P2;Temp;Humidity;BMP_temperature;BMP_pressure;BME280_temperature;BME280_humidity;BME280_pressure;Samples;Min_cycle;Max_cycle;Signal;HPM_P1;HPM_P2
2023/04/13 00:00:50;;;;;;;26.60;12.65;;;;;;;-146.25;100.00;52351.97;2088434;28;35689;-69
2023/04/13 00:01:52;;;;;;;30.52;14.18;;;;;;;-146.25;100.00;52360.09;2087186;28;34465;-71
2023/04/13 00:02:55;;;;;;;34.58;12.98;;;;;;;-146.25;100.00;52315.47;2087733;28;37319;-70
2023/04/13 00:04:01;;;;;;;32.78;14.30;;;;;;;-146.25;100.00;52386.44;2087468;28;35790;-70
2023/04/13 00:05:09;;;;;;;30.60;14.57;;;;;;;-146.25;100.00;52329.66;2088011;28;35047;-70
2023/04/13 00:06:11;;;;;;;36.72;15.25;;;;;;;-146.25;100.00;52351.97;2087279;28;36134;-71
2023/04/13 00:07:13;;;;;;;30.83;14.90;;;;;;;-146.25;100.00;52368.19;2087726;28;37292;-71
2023/04/13 00:08:21;;;;;;;33.50;15.18;;;;;;;-146.25;100.00;52349.94;2088078;28;20073;-71
2023/04/13 00:09:29;;;;;;;34.20;14.88;;;;;;;-146.25;100.00;52323.59;2088009;28;33846;-71
2023/04/13 00:10:35;;;;;;;40.22;15.55;;;;;;;-146.25;100.00;52351.97;2087237;28;32046;-70
2023/04/13 00:11:37;;;;;;;34.35;16.33;;;;;;;-146.25;100.00;52351.97;2087920;28;37697;-70
2023/04/13 00:12:39;;;;;;;35.92;16.13;;;;;;;-146.25;100.00;52329.66;2087520;28;35391;-71
2023/04/13 00:13:46;;;;;;;38.25;15.82;;;;;;;-146.25;100.00;52327.66;2087876;28;33987;-71
2023/04/13 00:14:49;;;;;;;37.95;15.52;;;;;;;-146.25;100.00;52331.69;2087851;28;34600;-70
2023/04/13 00:15:52;;;;;;;41.70;15.73;;;;;;;-146.25;100.00;52360.09;2087266;28;38609;-71
2023/04/13 00:16:55;;;;;;;31.73;15.65;;;;;;;-146.25;100.00;52321.56;2088314;28;20053;-70
2023/04/13 00:17:57;;;;;;;32.63;16.50;;;;;;;-146.25;100.00;52323.59;2087795;28;33840;-70
2023/04/13 00:19:00;;;;;;;42.67;17.13;;;;;;;-146.25;100.00;52376.31;2088017;28;20038;-70
2023/04/13 00:20:08;;;;;;;31.63;16.23;;;;;;;-146.25;100.00;52380.38;2087844;28;32104;-70
2023/04/13 00:21:09;;;;;;;36.30;16.70;;;;;;;-146.25;100.00;52347.91;2087868;28;34824;-70
2023/04/13 00:22:11;;;;;;;41.15;17.25;;;;;;;-146.25;100.00;52351.97;2087336;28;34839;-71
2023/04/13 00:23:13;;;;;;;36.58;16.40;;;;;;;-146.25;100.00;52366.16;2088007;28;38139;-70
2023/04/13 00:24:15;;;;;;;40.38;17.48;;;;;;;-146.25;100.00;52323.59;2087981;28;33881;-70
2023/04/13 00:25:16;;;;;;;37.50;17.20;;;;;;;-146.25;100.00;52339.81;2095229;28;35546;-70
2023/04/13 00:26:20;;;;;;;39.33;18.48;;;;;;;-146.25;100.00;52343.88;2095817;28;34037;-70
2023/04/13 00:27:25;;;;;;;38.42;17.85;;;;;;;-146.25;100.00;52327.66;2088380;28;20139;-70
2023/04/13 00:28:28;;;;;;;42.15;18.17;;;;;;;-146.25;100.00;52309.41;2088877;28;24761;-70
2023/04/13 00:29:32;;;;;;;37.22;17.83;;;;;;;-146.25;100.00;52349.94;2088500;28;20088;-70
2023/04/13 00:30:34;;;;;;;43.38;17.83;;;;;;;-146.25;100.00;52354.00;2089025;28;29963;-70
2023/04/13 00:31:38;;;;;;;39.17;17.75;;;;;;;-146.25;100.00;52351.97;2096825;28;20033;-70
2023/04/13 00:32:42;;;;;;;37.72;17.83;;;;;;;-146.25;100.00;52360.09;2089806;28;20334;-70
2023/04/13 00:33:46;;;;;;;39.13;18.23;;;;;;;-146.25;100.00;52362.13;2088979;28;32414;-70
2023/04/13 00:34:50;;;;;;;39.53;18.17;;;;;;;-146.25;100.00;52351.97;2096604;28;23817;-70
2023/04/13 00:35:52;;;;;;;35.53;17.30;;;;;;;-146.25;100.00;52356.03;2105119;28;28019;-71
2023/04/13 00:36:54;;;;;;;38.35;17.95;;;;;;;-146.25;100.00;52345.91;2105304;28;30157;-70
2023/04/13 00:37:57;;;;;;;31.70;17.00;;;;;;;-146.25;100.00;52374.28;2089615;28;20041;-70
2023/04/13 00:39:02;;;;;;;41.60;18.02;;;;;;;-146.25;100.00;52378.34;2089394;28;28964;-70
2023/04/13 00:40:06;;;;;;;37.42;17.13;;;;;;;-146.25;100.00;52356.03;2088757;28;21618;-68
2023/04/13 00:41:09;;;;;;;45.30;18.30;;;;;;;-146.25;100.00;52370.22;2088461;28;35855;-70
2023/04/13 00:42:12;;;;;;;39.85;18.40;;;;;;;-146.25;100.00;52347.91;2088964;28;31239;-70
2023/04/13 00:43:15;;;;;;;40.88;18.23;;;;;;;-146.25;100.00;52360.09;2089684;28;20041;-70
2023/04/13 00:44:20;;;;;;;39.08;17.75;;;;;;;-146.25;100.00;52341.84;2097076;28;20129;-70
2023/04/13 00:45:22;;;;;;;33.45;17.33;;;;;;;-146.25;100.00;52323.59;2096610;28;31201;-70
2023/04/13 00:46:23;;;;;;;38.25;18.08;;;;;;;-146.25;100.00;52362.13;2089210;28;32275;-70
2023/04/13 00:47:29;;;;;;;39.92;17.58;;;;;;;-146.25;100.00;52327.66;2089301;28;28262;-69
2023/04/13 00:48:33;;;;;;;39.50;17.98;;;;;;;-146.25;100.00;52321.56;2089221;28;28887;-71
2023/04/13 00:49:35;;;;;;;36.97;17.02;;;;;;;-146.25;100.00;52362.13;2089404;28;20042;-70
2023/04/13 00:50:38;;;;;;;37.33;16.38;;;;;;;-146.25;100.00;52360.09;2088531;28;37031;-71
2023/04/13 00:51:43;;;;;;;34.85;17.35;;;;;;;-146.25;100.00;52341.84;2105379;28;20137;-70
2023/04/13 00:52:48;;;;;;;35.72;16.75;;;;;;;-146.25;100.00;52368.19;2096636;28;20052;-70
2023/04/13 00:53:50;;;;;;;37.22;17.38;;;;;;;-146.25;100.00;52337.78;2088374;28;29225;-71
2023/04/13 00:54:55;;;;;;;33.92;16.67;;;;;;;-146.25;100.00;52307.38;2089477;28;20914;-70
2023/04/13 00:55:57;;;;;;;36.20;16.00;;;;;;;-146.25;100.00;52364.13;2088893;28;21767;-70
2023/04/13 00:57:00;;;;;;;32.92;15.88;;;;;;;-146.25;100.00;52347.91;2088334;28;31626;-71
2023/04/13 00:58:02;;;;;;;34.92;17.08;;;;;;;-146.25;100.00;52337.78;2097299;28;20091;-71
2023/04/13 00:59:06;;;;;;;31.20;16.02;;;;;;;-146.25;100.00;52347.91;2105530;28;32885;-70
2023/04/13 01:00:09;;;;;;;34.10;16.23;;;;;;;-146.25;100.00;52364.13;2105075;28;26707;-70
2023/04/13 01:01:11;;;;;;;34.03;16.83;;;;;;;-146.25;100.00;52333.72;2104046;28;20048;-70
2023/04/13 01:02:13;;;;;;;32.00;15.93;;;;;;;-146.25;100.00;52343.88;2088668;28;31841;-71
2023/04/13 01:03:15;;;;;;;33.42;15.68;;;;;;;-146.25;100.00;52364.13;2089661;28;20050;-72
2023/04/13 01:04:17;;;;;;;32.10;16.48;;;;;;;-146.25;100.00;52315.47;2089229;28;20045;-71
2023/04/13 01:05:20;;;;;;;28.58;15.55;;;;;;;-146.25;100.00;52315.47;2089531;28;20231;-70
2023/04/13 01:06:30;;;;;;;31.40;15.85;;;;;;;-146.25;100.00;52360.09;2097203;28;20049;-70
2023/04/13 01:07:49;;;;;;;32.28;16.13;;;;;;;-146.25;100.00;52341.84;2105259;28;26277;-71
2023/04/13 01:09:33;;;;;;;28.90;15.07;;;;;;;-146.25;100.00;52327.66;2085110;28;20077;-71
2023/04/13 01:10:43;;;;;;;25.88;13.68;;;;;;;-146.25;100.00;52376.31;2085659;28;20871;-70
2023/04/13 01:12:01;;;;;;;28.13;14.25;;;;;;;-146.25;100.00;52327.66;2088072;28;37528;-71
2023/04/13 01:13:21;;;;;;;28.05;15.05;;;;;;;-146.25;100.00;52331.69;2088316;28;20135;-70
2023/04/13 01:14:33;;;;;;;24.92;14.10;;;;;;;-146.25;100.00;52339.81;2083302;28;20131;-71
2023/04/13 01:15:39;;;;;;;29.17;14.45;;;;;;;-146.25;100.00;52339.81;2097873;28;20938;-71
2023/04/13 01:16:55;;;;;;;29.63;13.65;;;;;;;-146.25;100.00;52362.13;2087178;28;20034;-71
2023/04/13 01:18:06;;;;;;;27.15;13.98;;;;;;;-146.25;100.00;52390.50;2085602;28;20042;-70
2023/04/13 01:19:19;;;;;;;24.65;13.10;;;;;;;-146.25;100.00;52347.91;2088089;28;20085;-70
2023/04/13 01:20:23;;;;;;;28.13;13.48;;;;;;;-146.25;100.00;52382.38;2089979;28;20706;-71
2023/04/13 01:21:28;;;;;;;26.88;13.50;;;;;;;-146.25;100.00;52380.38;2088273;28;20048;-70
2023/04/13 01:22:34;;;;;;;19.70;13.15;;;;;;;-146.25;100.00;52323.59;2097386;28;20040;-70
2023/04/13 01:24:03;;;;;;;25.50;13.00;;;;;;;-146.25;100.00;52351.97;2102219;28;33894;-70
2023/04/13 01:25:29;;;;;;;25.42;12.63;;;;;;;-146.25;100.00;52386.44;2105157;28;20040;-71
2023/04/13 01:26:57;;;;;;;25.00;12.65;;;;;;;-146.25;100.00;52343.88;2098820;28;20037;-71
2023/04/13 01:28:14;;;;;;;23.23;12.23;;;;;;;-146.25;100.00;52374.28;2096626;28;38276;-71
2023/04/13 01:29:17;;;;;;;23.10;12.80;;;;;;;-146.25;100.00;52384.41;2088314;28;20954;-71
2023/04/13 01:30:24;;;;;;;24.08;12.20;;;;;;;-146.25;100.00;52323.59;2096988;28;20865;-71
2023/04/13 01:31:31;;;;;;;25.83;12.10;;;;;;;-146.25;100.00;52343.88;2095147;28;20161;-71
2023/04/13 01:32:34;;;;;;;23.00;12.13;;;;;;;-146.25;100.00;52315.47;2097374;28;20928;-71
2023/04/13 01:33:39;;;;;;;21.20;11.90;;;;;;;-146.25;100.00;52364.13;2096006;28;20146;-71
2023/04/13 01:34:42;;;;;;;21.67;11.60;;;;;;;-146.25;100.00;52327.66;2089039;28;20076;-71
2023/04/13 01:35:45;;;;;;;20.67;12.48;;;;;;;-146.25;100.00;52339.81;2088227;28;20041;-71
2023/04/13 01:36:50;;;;;;;22.58;11.93;;;;;;;-146.25;100.00;52368.19;2088756;28;20092;-71
2023/04/13 01:37:52;;;;;;;22.40;11.65;;;;;;;-146.25;100.00;52349.94;2096047;28;20090;-71
2023/04/13 01:38:58;;;;;;;20.48;10.90;;;;;;;-146.25;100.00;52368.19;2104070;28;20064;-71
2023/04/13 01:40:11;;;;;;;23.27;11.93;;;;;;;-146.25;100.00;52351.97;2088272;28;20038;-71
2023/04/13 01:41:20;;;;;;;19.27;12.00;;;;;;;-146.25;100.00;52307.38;2090686;28;20168;-71
2023/04/13 01:42:23;;;;;;;18.95;10.73;;;;;;;-146.25;100.00;52325.63;2088482;28;20188;-70
2023/04/13 01:43:26;;;;;;;18.13;10.80;;;;;;;-146.25;100.00;52337.78;2080621;28;20054;-71
2023/04/13 01:44:37;;;;;;;18.63;11.65;;;;;;;-146.25;100.00;52303.31;2081253;28;20112;-70
2023/04/13 01:46:12;;;;;;;17.27;10.55;;;;;;;-146.25;100.00;52364.13;2080677;28;20050;-70
2023/04/13 01:47:24;;;;;;;18.90;10.35;;;;;;;-146.25;100.00;52331.69;2086123;28;20045;-70
2023/04/13 01:48:51;;;;;;;16.80;9.88;;;;;;;-146.25;100.00;52337.78;2081616;28;20045;-70
2023/04/13 01:50:33;;;;;;;17.85;9.63;;;;;;;-146.25;100.00;52347.91;2086837;28;20053;-70
2023/04/13 01:51:47;;;;;;;13.63;9.48;;;;;;;-146.25;100.00;52343.88;2087857;28;20048;-70
2023/04/13 01:52:56;;;;;;;19.05;9.73;;;;;;;-146.25;100.00;52364.13;2079860;28;20046;-70
2023/04/13 01:54:19;;;;;;;15.88;9.88;;;;;;;-146.25;100.00;52354.00;2074702;28;20906;-70
2023/04/13 01:55:22;;;;;;;14.90;9.43;;;;;;;-146.25;100.00;52384.41;2083131;28;20041;-70
2023/04/13 01:56:28;;;;;;;18.45;9.40;;;;;;;-146.25;100.00;52327.66;2090019;28;20033;-70
2023/04/13 01:57:35;;;;;;;16.48;9.90;;;;;;;-146.25;100.00;52335.75;2088562;28;20041;-70
2023/04/13 01:58:42;;;;;;;15.13;9.20;;;;;;;-146.25;100.00;52382.38;2088878;28;20980;-70
2023/04/13 01:59:47;;;;;;;15.68;9.30;;;;;;;-146.25;100.00;52364.13;2095396;28;20953;-70
2023/04/13 02:00:54;;;;;;;20.35;10.15;;;;;;;-146.25;100.00;52339.81;2087304;28;20069;-70
2023/04/13 02:01:58;;;;;;;14.88;8.93;;;;;;;-146.25;100.00;52358.06;2080575;28;20132;-70
2023/04/13 02:03:00;;;;;;;15.48;10.00;;;;;;;-146.25;100.00;52343.88;2088238;28;20038;-70
2023/04/13 02:04:02;;;;;;;15.95;9.70;;;;;;;-146.25;100.00;52347.91;2088032;28;25051;-70
2023/04/13 02:05:08;;;;;;;14.15;9.48;;;;;;;-146.25;100.00;52368.19;2096388;28;20159;-71
2023/04/13 02:06:10;;;;;;;16.02;9.13;;;;;;;-146.25;100.00;52351.97;2104310;28;29871;-70
2023/04/13 02:07:17;;;;;;;15.65;9.27;;;;;;;-146.25;100.00;52356.03;2088064;28;21019;-70
2023/04/13 02:08:21;;;;;;;15.82;9.05;;;;;;;-146.25;100.00;52370.22;2080954;28;20042;-70
2023/04/13 02:09:24;;;;;;;15.13;9.52;;;;;;;-146.25;100.00;52378.34;2088200;28;25145;-70
2023/04/13 02:10:27;;;;;;;16.95;9.10;;;;;;;-146.25;100.00;52368.19;2088120;28;20033;-70
2023/04/13 02:11:33;;;;;;;16.95;9.07;;;;;;;-146.25;100.00;52370.22;2087745;28;20045;-70
2023/04/13 02:12:37;;;;;;;17.63;8.68;;;;;;;-146.25;100.00;52347.91;2080486;28;20163;-71
2023/04/13 02:13:43;;;;;;;16.17;9.35;;;;;;;-146.25;100.00;52376.31;2096353;28;20815;-71
2023/04/13 02:14:48;;;;;;;16.05;8.82;;;;;;;-146.25;100.00;52386.44;2095514;28;20041;-71
2023/04/13 02:15:52;;;;;;;16.02;8.73;;;;;;;-146.25;100.00;52360.09;2088273;28;20037;-70
2023/04/13 02:16:54;;;;;;;16.48;9.15;;;;;;;-146.25;100.00;52351.97;2096674;28;20048;-70
2023/04/13 02:17:56;;;;;;;14.75;8.15;;;;;;;-146.25;100.00;52388.47;2088074;28;29928;-70
2023/04/13 02:18:58;;;;;;;14.27;8.20;;;;;;;-146.25;100.00;52364.13;2088448;28;20030;-70
2023/04/13 02:20:00;;;;;;;14.73;8.65;;;;;;;-146.25;100.00;52339.81;2087923;28;21189;-70
2023/04/13 02:21:08;;;;;;;14.75;8.73;;;;;;;-146.25;100.00;52360.09;2088656;28;20791;-71
2023/04/13 02:22:10;;;;;;;14.05;8.13;;;;;;;-146.25;100.00;52339.81;2088282;28;22463;-70
2023/04/13 02:23:14;;;;;;;12.18;7.13;;;;;;;-146.25;100.00;52362.13;2089422;28;20176;-71
2023/04/13 02:24:17;;;;;;;10.27;7.55;;;;;;;-146.25;100.00;52337.78;2096412;28;20042;-71
2023/04/13 02:25:19;;;;;;;12.45;7.78;;;;;;;-146.25;100.00;52307.38;2096546;28;20048;-70
2023/04/13 02:26:21;;;;;;;14.25;7.60;;;;;;;-146.25;100.00;52341.84;2088213;28;20041;-71
2023/04/13 02:27:23;;;;;;;12.07;7.55;;;;;;;-146.25;100.00;52337.78;2088250;28;20177;-70
2023/04/13 02:28:26;;;;;;;15.02;7.90;;;;;;;-146.25;100.00;52362.13;2096470;28;20899;-71
2023/04/13 02:29:28;;;;;;;10.93;7.78;;;;;;;-146.25;100.00;52345.91;2087514;28;28519;-70
2023/04/13 02:30:30;;;;;;;10.98;7.05;;;;;;;-146.25;100.00;52356.03;2088363;28;31116;-70
2023/04/13 02:31:32;;;;;;;12.98;7.70;;;;;;;-146.25;100.00;52339.81;2087787;28;29259;-70
2023/04/13 02:32:39;;;;;;;10.80;6.60;;;;;;;-146.25;100.00;52354.00;2088219;28;20084;-70
2023/04/13 02:33:43;;;;;;;11.20;7.47;;;;;;;-146.25;100.00;52372.25;2096714;28;20175;-71
2023/04/13 02:34:46;;;;;;;12.25;7.50;;;;;;;-146.25;100.00;52378.34;2096468;28;20021;-70
2023/04/13 02:35:50;;;;;;;12.18;7.68;;;;;;;-146.25;100.00;52325.63;2095607;28;20041;-70
2023/04/13 02:36:55;;;;;;;10.57;7.03;;;;;;;-146.25;100.00;52368.19;2095911;28;20041;-71
2023/04/13 02:37:58;;;;;;;10.45;6.63;;;;;;;-146.25;100.00;52364.13;2088193;28;20116;-70
2023/04/13 02:39:00;;;;;;;11.55;7.90;;;;;;;-146.25;100.00;52360.09;2088730;28;20999;-71
2023/04/13 02:40:11;;;;;;;14.98;6.93;;;;;;;-146.25;100.00;52349.94;2088028;28;20038;-71
2023/04/13 02:41:13;;;;;;;11.75;6.90;;;;;;;-146.25;100.00;52362.13;2088839;28;20111;-70
2023/04/13 02:42:16;;;;;;;13.43;7.30;;;;;;;-146.25;100.00;52376.31;2096491;28;20151;-70
2023/04/13 02:43:19;;;;;;;11.88;7.28;;;;;;;-146.25;100.00;52345.91;2096291;28;20914;-70
2023/04/13 02:44:21;;;;;;;10.40;7.20;;;;;;;-146.25;100.00;52360.09;2088241;28;20041;-71
2023/04/13 02:45:29;;;;;;;13.38;7.35;;;;;;;-146.25;100.00;52356.03;2096854;28;20041;-71
2023/04/13 02:46:31;;;;;;;11.93;6.90;;;;;;;-146.25;100.00;52400.63;2095908;28;22769;-71
2023/04/13 02:47:43;;;;;;;12.55;7.47;;;;;;;-146.25;100.00;52333.72;2096380;28;20053;-71
2023/04/13 02:48:45;;;;;;;10.68;7.60;;;;;;;-146.25;100.00;52345.91;2095962;28;20106;-71
2023/04/13 02:49:47;;;;;;;10.43;6.85;;;;;;;-146.25;100.00;52347.91;2088260;28;26907;-71
2023/04/13 02:51:02;;;;;;;12.45;6.85;;;;;;;-146.25;100.00;52335.75;2087747;28;20049;-71
2023/04/13 02:52:08;;;;;;;12.70;7.30;;;;;;;-146.25;100.00;52384.41;2087739;28;20989;-71
2023/04/13 02:53:16;;;;;;;11.77;7.38;;;;;;;-146.25;100.00;52347.91;2088622;28;20974;-71
2023/04/13 02:54:21;;;;;;;11.13;7.07;;;;;;;-146.25;100.00;52339.81;2105022;28;20882;-71
2023/04/13 02:55:23;;;;;;;14.98;7.85;;;;;;;-146.25;100.00;52384.41;2096000;28;20041;-71
2023/04/13 02:56:39;;;;;;;12.85;7.10;;;;;;;-146.25;100.00;52351.97;2098662;28;20127;-70
2023/04/13 02:57:41;;;;;;;14.50;6.93;;;;;;;-146.25;100.00;52315.47;2104901;28;20109;-70
2023/04/13 02:58:43;;;;;;;12.90;7.82;;;;;;;-146.25;100.00;52333.72;2087818;28;20157;-70
2023/04/13 02:59:50;;;;;;;13.25;7.20;;;;;;;-146.25;100.00;52360.09;2080573;28;20885;-70
2023/04/13 03:00:56;;;;;;;10.80;7.25;;;;;;;-146.25;100.00;52364.13;2096313;28;20045;-70
2023/04/13 03:02:01;;;;;;;10.23;7.05;;;;;;;-146.25;100.00;52345.91;2095783;28;20190;-70
2023/04/13 03:03:05;;;;;;;11.88;6.88;;;;;;;-146.25;100.00;52380.38;2096817;28;21008;-70
2023/04/13 03:04:13;;;;;;;10.30;7.13;;;;;;;-146.25;100.00;52345.91;2095414;28;20048;-70
2023/04/13 03:05:16;;;;;;;12.88;7.28;;;;;;;-146.25;100.00;52380.38;2087746;28;20054;-71
2023/04/13 03:06:18;;;;;;;10.40;7.05;;;;;;;-146.25;100.00;52374.28;2095941;28;20060;-70
2023/04/13 03:07:23;;;;;;;10.48;6.28;;;;;;;-146.25;100.00;52360.09;2087750;28;20137;-70
2023/04/13 03:08:26;;;;;;;12.35;7.20;;;;;;;-146.25;100.00;52356.03;2080385;28;20057;-70
2023/04/13 03:09:40;;;;;;;11.85;7.28;;;;;;;-146.25;100.00;52329.66;2089402;28;20099;-70
2023/04/13 03:10:43;;;;;;;10.23;6.82;;;;;;;-146.25;100.00;52358.06;2088099;28;20046;-70
2023/04/13 03:11:45;;;;;;;10.50;7.47;;;;;;;-146.25;100.00;52364.13;2087476;28;22655;-69
2023/04/13 03:12:57;;;;;;;13.87;7.20;;;;;;;-146.25;100.00;52372.25;2096444;28;20052;-69
2023/04/13 03:14:00;;;;;;;12.48;7.70;;;;;;;-146.25;100.00;52364.13;2095615;28;20271;-69
2023/04/13 03:15:06;;;;;;;11.85;7.28;;;;;;;-146.25;100.00;52331.69;2087929;28;22519;-68
2023/04/13 03:16:10;;;;;;;11.07;7.32;;;;;;;-146.25;100.00;52349.94;2087852;28;20193;-68
2023/04/13 03:17:11;;;;;;;11.90;7.03;;;;;;;-146.25;100.00;52349.94;2087778;28;25194;-68
2023/04/13 03:18:15;;;;;;;14.57;7.15;;;;;;;-146.25;100.00;52356.03;2087785;28;20045;-68
2023/04/13 03:19:17;;;;;;;11.05;7.78;;;;;;;-146.25;100.00;52319.53;2087994;28;20860;-69
2023/04/13 03:20:22;;;;;;;10.70;7.20;;;;;;;-146.25;100.00;52362.13;2087319;28;20041;-68
2023/04/13 03:21:34;;;;;;;11.60;7.07;;;;;;;-146.25;100.00;52356.03;2088160;28;20107;-68
2023/04/13 03:22:41;;;;;;;9.75;5.25;;;;;;;-146.25;100.00;52364.13;2087528;28;20033;-69
2023/04/13 03:23:43;;;;;;;9.40;7.30;;;;;;;-146.25;100.00;52372.25;2087863;28;20045;-68
2023/04/13 03:24:46;;;;;;;13.55;6.80;;;;;;;-146.25;100.00;52341.84;2080005;28;20918;-68
2023/04/13 03:25:56;;;;;;;11.90;7.15;;;;;;;-146.25;100.00;52376.31;2097245;28;20822;-68
2023/04/13 03:26:58;;;;;;;9.82;6.65;;;;;;;-146.25;100.00;52364.13;2104329;28;29257;-68
2023/04/13 03:28:06;;;;;;;10.52;7.03;;;;;;;-146.25;100.00;52378.34;2095987;28;20164;-69
2023/04/13 03:29:13;;;;;;;13.45;6.88;;;;;;;-146.25;100.00;52378.34;2104875;28;20045;-69
2023/04/13 03:30:21;;;;;;;14.85;6.78;;;;;;;-146.25;100.00;52380.38;2103479;28;20040;-68
2023/04/13 03:31:31;;;;;;;13.02;6.72;;;;;;;-146.25;100.00;52376.31;2087910;28;20054;-68
2023/04/13 03:32:33;;;;;;;12.27;7.13;;;;;;;-146.25;100.00;52382.38;2079619;28;20045;-68
2023/04/13 03:33:36;;;;;;;12.82;7.43;;;;;;;-146.25;100.00;52368.19;2088257;28;20100;-68
2023/04/13 03:34:42;;;;;;;11.73;6.93;;;;;;;-146.25;100.00;52335.75;2095528;28;20041;-68
2023/04/13 03:35:46;;;;;;;11.90;7.45;;;;;;;-146.25;100.00;52329.66;2087649;28;20190;-68
2023/04/13 03:36:56;;;;;;;12.23;7.57;;;;;;;-146.25;100.00;52337.78;2097665;28;20138;-70
2023/04/13 03:38:01;;;;;;;10.23;6.88;;;;;;;-146.25;100.00;52339.81;2095871;28;20033;-68
2023/04/13 03:39:16;;;;;;;10.95;7.07;;;;;;;-146.25;100.00;52313.44;2087766;28;20152;-67
2023/04/13 03:40:20;;;;;;;11.07;6.78;;;;;;;-146.25;100.00;52327.66;2087526;28;24781;-68
2023/04/13 03:41:25;;;;;;;11.80;7.65;;;;;;;-146.25;100.00;52356.03;2087840;28;20045;-67
2023/04/13 03:42:27;;;;;;;13.32;6.82;;;;;;;-146.25;100.00;52364.13;2087867;28;20073;-65
2023/04/13 03:43:32;;;;;;;12.10;7.20;;;;;;;-146.25;100.00;52388.47;2087492;28;20127;-68
2023/04/13 03:44:44;;;;;;;12.55;6.35;;;;;;;-146.25;100.00;52351.97;2088995;28;20057;-67
2023/04/13 03:45:45;;;;;;;14.80;7.45;;;;;;;-146.25;100.00;52356.03;2095979;28;20033;-69
2023/04/13 03:46:50;;;;;;;11.63;7.07;;;;;;;-146.25;100.00;52362.13;2087782;28;20126;-70
2023/04/13 03:48:04;;;;;;;12.05;6.65;;;;;;;-146.25;100.00;52349.94;2081150;28;20046;-69
2023/04/13 03:49:09;;;;;;;10.82;7.00;;;;;;;-146.25;100.00;52331.69;2087537;28;20037;-69
2023/04/13 03:50:11;;;;;;;13.75;7.05;;;;;;;-146.25;100.00;52400.63;2087968;28;20073;-69
2023/04/13 03:51:13;;;;;;;9.88;6.60;;;;;;;-146.25;100.00;52372.25;2086966;28;20044;-69
2023/04/13 03:52:23;;;;;;;11.52;6.82;;;;;;;-146.25;100.00;52358.06;2095375;28;20080;-69
2023/04/13 03:53:30;;;;;;;13.32;6.85;;;;;;;-146.25;100.00;52396.59;2088249;28;20049;-69
2023/04/13 03:54:32;;;;;;;11.90;7.18;;;;;;;-146.25;100.00;52345.91;2087565;28;20423;-69
2023/04/13 03:55:34;;;;;;;9.50;6.65;;;;;;;-146.25;100.00;52347.91;2096164;28;20134;-69
2023/04/13 03:56:40;;;;;;;11.70;6.72;;;;;;;-146.25;100.00;52380.38;2103336;28;20240;-69
2023/04/13 03:57:43;;;;;;;11.70;6.20;;;;;;;-146.25;100.00;52386.44;2087478;28;20049;-69
2023/04/13 03:58:50;;;;;;;11.32;6.63;;;;;;;-146.25;100.00;52339.81;2087958;28;20038;-69
2023/04/13 03:59:56;;;;;;;10.93;6.20;;;;;;;-146.25;100.00;52380.38;2088390;28;20045;-69
2023/04/13 04:01:14;;;;;;;10.50;6.50;;;;;;;-146.25;100.00;52327.66;2093903;28;20041;-69
2023/04/13 04:02:22;;;;;;;9.13;6.13;;;;;;;-146.25;100.00;52349.94;2089240;28;20034;-69
2023/04/13 04:03:24;;;;;;;8.48;6.20;;;;;;;-146.25;100.00;52364.13;2088951;28;20096;-70
2023/04/13 04:04:30;;;;;;;12.02;6.07;;;;;;;-146.25;100.00;52333.72;2089362;28;20898;-69
2023/04/13 04:05:31;;;;;;;9.57;6.50;;;;;;;-146.25;100.00;52364.13;2088424;28;23422;-69
2023/04/13 04:06:40;;;;;;;11.32;6.22;;;;;;;-146.25;100.00;52386.44;2097448;28;20040;-69
2023/04/13 04:07:47;;;;;;;9.68;6.43;;;;;;;-146.25;100.00;52358.06;2095990;28;20915;-69
2023/04/13 04:08:50;;;;;;;8.23;5.80;;;;;;;-146.25;100.00;52376.31;2097727;28;20124;-69
2023/04/13 04:10:13;;;;;;;10.18;5.72;;;;;;;-146.25;100.00;52390.50;2094259;28;20041;-69
2023/04/13 04:11:16;;;;;;;7.82;5.57;;;;;;;-146.25;100.00;52335.75;2089284;28;20126;-69
2023/04/13 04:12:20;;;;;;;10.93;5.85;;;;;;;-146.25;100.00;52333.72;2088966;28;20846;-68
2023/04/13 04:13:24;;;;;;;8.13;5.70;;;;;;;-146.25;100.00;52378.34;2089230;28;20088;-69
2023/04/13 04:14:31;;;;;;;10.75;6.00;;;;;;;-146.25;100.00;52356.03;2089083;28;20119;-68
2023/04/13 04:15:39;;;;;;;8.57;5.53;;;;;;;-146.25;100.00;52400.63;2089262;28;20142;-68
2023/04/13 04:16:41;;;;;;;8.27;6.05;;;;;;;-146.25;100.00;52347.91;2088710;28;25365;-69
2023/04/13 04:17:46;;;;;;;10.48;5.43;;;;;;;-146.25;100.00;52384.41;2089147;28;20191;-68
2023/04/13 04:18:50;;;;;;;10.35;5.95;;;;;;;-146.25;100.00;52337.78;2089359;28;20050;-68
2023/04/13 04:19:53;;;;;;;8.00;5.35;;;;;;;-146.25;100.00;52351.97;2088983;28;20068;-69
2023/04/13 04:20:58;;;;;;;8.60;5.47;;;;;;;-146.25;100.00;52349.94;2088464;28;20038;-69
2023/04/13 04:22:05;;;;;;;11.23;5.25;;;;;;;-146.25;100.00;52392.53;2097282;28;20044;-69
2023/04/13 04:23:12;;;;;;;;;;;;;;;-146.25;100.00;52386.44;2104876;28;20174;-69
2023/04/13 04:24:21;;;;;;;8.27;4.90;;;;;;;-146.25;100.00;52368.19;2105654;28;19917;-69
2023/04/13 04:25:31;;;;;;;8.88;5.10;;;;;;;-146.25;100.00;52372.25;2096240;28;20139;-68
2023/04/13 04:26:36;;;;;;;7.93;4.68;;;;;;;-146.25;100.00;52360.09;2089181;28;20042;-69
2023/04/13 04:27:40;;;;;;;8.50;5.03;;;;;;;-146.25;100.00;52347.91;2089224;28;20862;-68
2023/04/13 04:28:42;;;;;;;8.00;4.68;;;;;;;-146.25;100.00;52366.16;2088735;28;20037;-69
2023/04/13 04:29:51;;;;;;;8.07;5.03;;;;;;;-146.25;100.00;52370.22;2089243;28;20045;-69
2023/04/13 04:31:03;;;;;;;7.05;4.47;;;;;;;-146.25;100.00;52356.03;2089310;28;20804;-69
2023/04/13 04:32:09;;;;;;;8.68;4.57;;;;;;;-146.25;100.00;52380.38;2089186;28;20033;-68
2023/04/13 04:33:13;;;;;;;5.70;4.38;;;;;;;-146.25;100.00;52349.94;2097375;28;20833;-69
2023/04/13 04:34:15;;;;;;;7.50;4.50;;;;;;;-146.25;100.00;52333.72;2105902;28;21283;-68
2023/04/13 04:35:19;;;;;;;7.82;4.75;;;;;;;-146.25;100.00;52376.31;2089252;28;20049;-69
2023/04/13 04:36:26;;;;;;;11.68;4.65;;;;;;;-146.25;100.00;52386.44;2089079;28;20164;-69
2023/04/13 04:37:36;;;;;;;8.48;4.60;;;;;;;-146.25;100.00;52358.06;2089425;28;20045;-69
2023/04/13 04:38:42;;;;;;;7.70;4.70;;;;;;;-146.25;100.00;52362.13;2088774;28;20038;-68
2023/04/13 04:39:47;;;;;;;9.20;4.80;;;;;;;-146.25;100.00;52345.91;2081144;28;20073;-69
2023/04/13 04:40:56;;;;;;;7.25;4.43;;;;;;;-146.25;100.00;52337.78;2080948;28;20105;-68
2023/04/13 04:42:01;;;;;;;8.50;4.28;;;;;;;-146.25;100.00;52400.63;2089242;28;20041;-68
2023/04/13 04:43:04;;;;;;;7.95;3.92;;;;;;;-146.25;100.00;52394.56;2097626;28;20072;-69
2023/04/13 04:44:16;;;;;;;5.03;3.75;;;;;;;-146.25;100.00;52327.66;2089091;28;20978;-69
2023/04/13 04:45:19;;;;;;;6.60;4.07;;;;;;;-146.25;100.00;52345.91;2088461;28;20830;-69
2023/04/13 04:46:28;;;;;;;6.65;4.00;;;;;;;-146.25;100.00;52349.94;2089092;28;20985;-69
2023/04/13 04:47:40;;;;;;;7.68;3.88;;;;;;;-146.25;100.00;52370.22;2098140;28;20037;-68
2023/04/13 04:48:53;;;;;;;5.38;3.90;;;;;;;-146.25;100.00;52354.00;2095387;28;20898;-69
2023/04/13 04:49:57;;;;;;;6.85;3.85;;;;;;;-146.25;100.00;52356.03;2081102;28;20042;-69
2023/04/13 04:50:59;;;;;;;7.47;3.95;;;;;;;-146.25;100.00;52360.09;2088757;28;20895;-68
2023/04/13 04:52:11;;;;;;;9.35;4.22;;;;;;;-146.25;100.00;52339.81;2088662;28;20041;-68
2023/04/13 04:53:14;;;;;;;5.95;3.25;;;;;;;-146.25;100.00;52364.13;2089217;28;20057;-69
2023/04/13 04:54:16;;;;;;;4.90;3.45;;;;;;;-146.25;100.00;52351.97;2097160;28;21132;-69
2023/04/13 04:55:20;;;;;;;7.18;3.60;;;;;;;-146.25;100.00;52362.13;2088941;28;20100;-69
2023/04/13 04:56:22;;;;;;;7.85;3.92;;;;;;;-146.25;100.00;52376.31;2097496;28;20163;-69